WEATHER DATA

YESTERDAY
Time Temp. Dewp. Hum. Bar.
00:00 6.4 -3.9 46 998.9
00:20 6 -3.9 47 998.6
00:30 5.8 -3.9 48 998.5
00:40 5.6 -4 48 998.4
00:50 5.4 -3.9 49 998.5
01:00 5.2 -4.1 49 998.5
01:10 5.1 -3.9 50 998.4
01:20 4.9 -4.1 50 998.3
01:30 4.7 -4 51 998.1
01:40 4.6 -4.1 51 998.2
01:50 4.4 -4.1 52 998.1
02:00 4.2 -4 53 998.1
02:10 4 -4.2 53 998
02:20 3.9 -4.3 53 997.9
02:31 3.7 -4.2 54 997.8
02:40 3.5 -4.4 54 997.7
02:50 3.3 -4.5 54 997.5
03:00 3.2 -4.4 55 997.5
03:11 3 -4.6 55 997.5
03:20 2.8 -4.5 56 997.5
03:30 2.7 -4.6 56 997.5
03:41 2.6 -4.5 57 997.2
03:50 2.4 -4.6 57 997.2
04:00 2.4 -4.4 58 997.3
04:10 2.3 -4.5 58 997.2
04:21 2.2 -4.6 58 997.2
04:30 2.1 -4.5 59 997.1
04:40 2 -4.6 59 997
04:51 1.9 -4.7 59 996.8
05:01 1.7 -4.6 60 996.8
05:10 1.6 -4.7 60 996.7
05:21 1.5 -4.6 61 996.6
05:31 1.4 -4.5 62 996.6
05:40 1.3 -4.6 62 996.6
05:50 1.4 -4.5 62 996.7
06:01 1.4 -4.5 62 996.6
06:11 1.3 -4.4 63 996.5
06:20 1.4 -4.3 63 996.5
06:31 1.4 -4.3 63 996.6
06:41 1.6 -4.1 63 996.6
06:51 1.8 -3.8 64 996.6
07:01 1.9 -3.7 64 996.5
07:11 2.1 -3.5 64 996.4
07:21 2.4 -3.3 64 996.3
07:30 2.6 -3.3 63 996.3
07:41 2.8 -2.9 64 996.2
07:51 3.1 -2.7 64 996.3
08:01 3.3 -2.7 63 996.2
08:11 3.5 -2.5 63 996.2
08:21 3.8 -2.3 63 996
08:31 4 -2.1 63 995.9
08:41 4.3 -1.9 63 995.9
08:51 4.6 -1.6 63 995.8
09:01 5.4 -1.1 62 995.9
09:11 5.9 -0.9 61 995.9
09:21 6.3 -0.8 60 995.9
09:31 6.9 -0.3 60 995.8
09:41 7.4 -0.1 59 995.9
09:51 8 0.2 58 995.8
10:01 8.4 0.4 57 995.8
10:11 8.9 0.6 56 995.6
10:21 9.4 0.8 55 995.6
10:32 9.7 0.8 54 995.5
10:41 10 1.1 54 995.4
10:51 10.2 1.1 53 995.3
11:01 10.4 1 52 995.2
11:12 10.7 1.3 52 995
11:21 11.2 1.4 51 994.9
11:31 11.6 1.8 51 994.9
11:42 11.9 1.8 50 994.9
11:52 12.4 2.3 50 994.9
12:01 12.7 2 48 994.9
12:12 13.1 2.1 47 994.8
12:22 13.6 1.9 45 994.7
12:31 13.9 1.9 44 994.6
12:41 14.4 2.3 44 994.6
12:52 14.9 2.4 43 994.4
13:02 15.2 2.4 42 994.4
13:11 15.6 2.7 42 994.4
13:32 16.5 2.9 40 994.2
13:42 16.7 3.4 41 994.1
14:02 16.6 3 40 993.9
14:12 16.5 2.9 40 993.8
14:32 16.4 2.8 40 993.6
14:42 16.4 2.8 40 993.5
15:02 16.7 3 40 993.1
15:22 17 3 39 992.9
15:32 16.8 2.8 39 992.7
15:42 16.7 2.7 39 992.6
15:52 16.4 2.4 39 992.6
16:02 16.2 2.2 39 992.5
16:12 16 2.4 40 992.4
16:22 15.9 2.3 40 992.2
16:32 15.8 2.2 40 992.1
16:42 15.6 2.1 40 992.1
16:52 15.6 2.4 41 992.1
17:02 15.6 2.4 41 992.1
17:12 15.3 2.5 42 992
17:23 15.2 2.7 43 991.9
17:32 15.1 2.6 43 991.9
17:42 14.8 2.7 44 991.9
17:52 14.4 2.3 44 991.9
18:03 14 2.3 45 992
18:12 13.7 2.3 46 992.1
18:22 13.8 2.4 46 992.2
18:33 13.6 1.9 45 992.2
18:43 13.5 1.8 45 992.2
18:52 13.4 1.7 45 992.3
19:03 13.2 1.5 45 992.2
19:13 13.1 2.1 47 992.1
19:22 13 1.7 46 992
19:32 12.9 1.6 46 992.1
19:43 12.7 1.7 47 992.1
19:53 12.4 1.4 47 992
20:02 12 1.3 48 992.1
20:13 11.6 1.3 49 992.1
20:23 11.3 1 49 992.2
20:33 11.1 0.8 49 992.3
20:43 10.9 0.9 50 992.3
20:53 10.7 1 51 992.4
21:03 10.7 1.3 52 992.5
21:12 11 1.8 53 992.5
21:23 11.2 2.2 54 992.6
21:33 11.3 2.6 55 992.5
21:43 11.3 2.6 55 992.5
21:53 11.3 2.6 55 992.6
22:03 11.3 2.6 55 992.6
22:13 11.2 2.5 55 992.6
22:23 11.3 2.8 56 992.6
22:33 11.2 2.8 56 992.7
22:43 11 2.6 56 992.7
22:53 10.7 2 55 992.8
23:03 10.4 2 56 992.8
23:13 10 1.6 56 992.8
23:23 9.6 1.3 56 992.9
23:33 9.2 1.1 57 992.8
23:43 9 1.2 58 992.8
23:53 8.7 0.9 58 992.9

DAY STATISTIC

2019-04-21
TEMPERATURE
AVERAGE
8.9
HIGH
17.0
15:22
LOW
1.3
05:40
PRESSURE
AVERAGE
994.8
HIGH
998.9
00:00
LOW
991.9
17:23
DEWPOINT
AVERAGE
-0.4
HIGH
3.4
13:42
LOW
-4.7
04:51
HUMIDITY
AVERAGE
52
HIGH
64
06:51
LOW
39
15:22
TEMPERATURE (°C)
LOW
1.3
HIGH
17.0
AVERAGE
8.9
PRESSURE (hpa)
LOW
991.9
HIGH
998.9
AVERAGE
994.8
DEVICE